sensor_id;sensor_type;location;lat;lon;timestamp;temperature;humidity
73149;SHT30;61346;48.930;2.266;2022-08-19T00:01:38;21.69;61.27
73149;SHT30;61346;48.930;2.266;2022-08-19T00:04:07;21.65;61.30
73149;SHT30;61346;48.930;2.266;2022-08-19T00:06:33;21.63;61.36
73149;SHT30;61346;48.930;2.266;2022-08-19T00:08:59;21.56;61.49
73149;SHT30;61346;48.930;2.266;2022-08-19T00:11:27;21.55;61.48
73149;SHT30;61346;48.930;2.266;2022-08-19T00:13:54;21.52;61.55
73149;SHT30;61346;48.930;2.266;2022-08-19T00:16:21;21.51;61.54
73149;SHT30;61346;48.930;2.266;2022-08-19T00:18:48;21.48;61.74
73149;SHT30;61346;48.930;2.266;2022-08-19T00:21:14;21.45;61.72
73149;SHT30;61346;48.930;2.266;2022-08-19T00:23:49;21.45;61.76
73149;SHT30;61346;48.930;2.266;2022-08-19T00:26:15;21.39;61.77
73149;SHT30;61346;48.930;2.266;2022-08-19T00:28:40;21.38;61.93
73149;SHT30;61346;48.930;2.266;2022-08-19T00:31:08;21.34;62.03
73149;SHT30;61346;48.930;2.266;2022-08-19T00:33:33;21.34;61.95
73149;SHT30;61346;48.930;2.266;2022-08-19T00:36:00;21.31;61.99
73149;SHT30;61346;48.930;2.266;2022-08-19T00:38:26;21.27;62.11
73149;SHT30;61346;48.930;2.266;2022-08-19T00:40:52;21.23;62.14
73149;SHT30;61346;48.930;2.266;2022-08-19T00:43:23;21.18;62.11
73149;SHT30;61346;48.930;2.266;2022-08-19T00:45:49;21.15;62.17
73149;SHT30;61346;48.930;2.266;2022-08-19T00:48:15;21.12;62.23
73149;SHT30;61346;48.930;2.266;2022-08-19T00:50:42;21.10;62.19
73149;SHT30;61346;48.930;2.266;2022-08-19T00:53:09;21.10;62.25
73149;SHT30;61346;48.930;2.266;2022-08-19T00:55:37;21.07;62.25
73149;SHT30;61346;48.930;2.266;2022-08-19T00:58:08;21.06;62.31
73149;SHT30;61346;48.930;2.266;2022-08-19T01:00:35;21.03;62.36
73149;SHT30;61346;48.930;2.266;2022-08-19T01:03:10;21.00;62.39
73149;SHT30;61346;48.930;2.266;2022-08-19T01:05:37;20.99;62.47
73149;SHT30;61346;48.930;2.266;2022-08-19T01:08:04;20.96;62.45
73149;SHT30;61346;48.930;2.266;2022-08-19T01:10:39;20.94;62.47
73149;SHT30;61346;48.930;2.266;2022-08-19T01:13:08;20.93;62.59
73149;SHT30;61346;48.930;2.266;2022-08-19T01:15:42;20.89;62.61
73149;SHT30;61346;48.930;2.266;2022-08-19T01:18:12;20.89;62.66
73149;SHT30;61346;48.930;2.266;2022-08-19T01:20:41;20.86;62.66
73149;SHT30;61346;48.930;2.266;2022-08-19T01:23:07;20.83;62.77
73149;SHT30;61346;48.930;2.266;2022-08-19T01:25:39;20.79;62.84
73149;SHT30;61346;48.930;2.266;2022-08-19T01:28:07;20.79;62.85
73149;SHT30;61346;48.930;2.266;2022-08-19T01:30:34;20.77;63.01
73149;SHT30;61346;48.930;2.266;2022-08-19T01:33:02;20.76;62.99
73149;SHT30;61346;48.930;2.266;2022-08-19T01:35:30;20.72;63.16
73149;SHT30;61346;48.930;2.266;2022-08-19T01:38:00;20.71;63.15
73149;SHT30;61346;48.930;2.266;2022-08-19T01:40:29;20.66;63.20
73149;SHT30;61346;48.930;2.266;2022-08-19T01:42:56;20.66;63.23
73149;SHT30;61346;48.930;2.266;2022-08-19T01:45:24;20.68;63.27
73149;SHT30;61346;48.930;2.266;2022-08-19T01:47:50;20.66;63.32
73149;SHT30;61346;48.930;2.266;2022-08-19T01:50:16;20.63;63.43
73149;SHT30;61346;48.930;2.266;2022-08-19T01:52:43;20.62;63.36
73149;SHT30;61346;48.930;2.266;2022-08-19T01:55:13;20.62;63.43
73149;SHT30;61346;48.930;2.266;2022-08-19T01:57:41;20.63;63.43
73149;SHT30;61346;48.930;2.266;2022-08-19T02:00:11;20.65;63.51
73149;SHT30;61346;48.930;2.266;2022-08-19T02:02:38;20.61;63.57
73149;SHT30;61346;48.930;2.266;2022-08-19T02:05:05;20.61;63.82
73149;SHT30;61346;48.930;2.266;2022-08-19T02:07:32;20.61;63.76
73149;SHT30;61346;48.930;2.266;2022-08-19T02:09:58;20.61;63.79
73149;SHT30;61346;48.930;2.266;2022-08-19T02:12:23;20.56;63.72
73149;SHT30;61346;48.930;2.266;2022-08-19T02:14:48;20.57;63.78
73149;SHT30;61346;48.930;2.266;2022-08-19T02:17:14;20.57;63.86
73149;SHT30;61346;48.930;2.266;2022-08-19T02:19:39;20.59;63.77
73149;SHT30;61346;48.930;2.266;2022-08-19T02:22:05;20.56;63.72
73149;SHT30;61346;48.930;2.266;2022-08-19T02:24:31;20.59;63.89
73149;SHT30;61346;48.930;2.266;2022-08-19T02:26:56;20.59;64.03
73149;SHT30;61346;48.930;2.266;2022-08-19T02:29:23;20.66;64.02
73149;SHT30;61346;48.930;2.266;2022-08-19T02:31:48;20.73;63.95
73149;SHT30;61346;48.930;2.266;2022-08-19T02:34:14;20.76;63.93
73149;SHT30;61346;48.930;2.266;2022-08-19T02:36:39;20.79;63.89
73149;SHT30;61346;48.930;2.266;2022-08-19T02:39:04;20.77;63.87
73149;SHT30;61346;48.930;2.266;2022-08-19T02:41:32;20.80;63.83
73149;SHT30;61346;48.930;2.266;2022-08-19T02:44:00;20.80;63.83
73149;SHT30;61346;48.930;2.266;2022-08-19T02:46:29;20.80;63.88
73149;SHT30;61346;48.930;2.266;2022-08-19T02:48:57;20.76;63.88
73149;SHT30;61346;48.930;2.266;2022-08-19T02:51:29;20.77;63.87
73149;SHT30;61346;48.930;2.266;2022-08-19T02:53:55;20.75;63.81
73149;SHT30;61346;48.930;2.266;2022-08-19T02:56:22;20.71;63.86
73149;SHT30;61346;48.930;2.266;2022-08-19T02:58:47;20.68;63.97
73149;SHT30;61346;48.930;2.266;2022-08-19T03:01:41;20.65;64.06
73149;SHT30;61346;48.930;2.266;2022-08-19T03:04:07;20.63;64.25
73149;SHT30;61346;48.930;2.266;2022-08-19T03:06:40;20.62;64.42
73149;SHT30;61346;48.930;2.266;2022-08-19T03:09:06;20.62;64.50
73149;SHT30;61346;48.930;2.266;2022-08-19T03:11:32;20.63;64.77
73149;SHT30;61346;48.930;2.266;2022-08-19T03:13:58;20.65;64.60
73149;SHT30;61346;48.930;2.266;2022-08-19T03:16:26;20.66;64.72
73149;SHT30;61346;48.930;2.266;2022-08-19T03:18:53;20.66;64.84
73149;SHT30;61346;48.930;2.266;2022-08-19T03:21:24;20.63;64.82
73149;SHT30;61346;48.930;2.266;2022-08-19T03:23:53;20.65;64.95
73149;SHT30;61346;48.930;2.266;2022-08-19T03:26:18;20.65;64.95
73149;SHT30;61346;48.930;2.266;2022-08-19T03:28:44;20.62;64.85
73149;SHT30;61346;48.930;2.266;2022-08-19T03:31:16;20.63;64.91
73149;SHT30;61346;48.930;2.266;2022-08-19T03:33:42;20.62;65.28
73149;SHT30;61346;48.930;2.266;2022-08-19T03:36:17;20.63;65.47
73149;SHT30;61346;48.930;2.266;2022-08-19T03:38:45;20.62;65.73
73149;SHT30;61346;48.930;2.266;2022-08-19T03:41:19;20.57;65.66
73149;SHT30;61346;48.930;2.266;2022-08-19T03:43:47;20.57;65.62
73149;SHT30;61346;48.930;2.266;2022-08-19T03:46:16;20.57;65.70
73149;SHT30;61346;48.930;2.266;2022-08-19T03:48:43;20.57;66.15
73149;SHT30;61346;48.930;2.266;2022-08-19T03:51:20;20.57;65.79
73149;SHT30;61346;48.930;2.266;2022-08-19T03:53:46;20.56;66.03
73149;SHT30;61346;48.930;2.266;2022-08-19T03:56:12;20.59;65.66
73149;SHT30;61346;48.930;2.266;2022-08-19T03:58:39;20.63;65.71
73149;SHT30;61346;48.930;2.266;2022-08-19T04:01:10;20.68;65.64
73149;SHT30;61346;48.930;2.266;2022-08-19T04:03:36;20.66;65.54
73149;SHT30;61346;48.930;2.266;2022-08-19T04:06:12;20.68;65.67
73149;SHT30;61346;48.930;2.266;2022-08-19T04:08:42;20.68;65.74
73149;SHT30;61346;48.930;2.266;2022-08-19T04:11:10;20.68;65.61
73149;SHT30;61346;48.930;2.266;2022-08-19T04:13:35;20.66;65.73
73149;SHT30;61346;48.930;2.266;2022-08-19T04:16:01;20.65;65.68
73149;SHT30;61346;48.930;2.266;2022-08-19T04:18:26;20.71;65.82
73149;SHT30;61346;48.930;2.266;2022-08-19T04:20:54;20.69;65.74
73149;SHT30;61346;48.930;2.266;2022-08-19T04:23:20;20.71;65.93
73149;SHT30;61346;48.930;2.266;2022-08-19T04:25:45;20.72;65.91
73149;SHT30;61346;48.930;2.266;2022-08-19T04:28:12;20.73;65.82
73149;SHT30;61346;48.930;2.266;2022-08-19T04:30:40;20.73;65.76
73149;SHT30;61346;48.930;2.266;2022-08-19T04:33:05;20.75;65.63
73149;SHT30;61346;48.930;2.266;2022-08-19T04:35:42;20.76;65.92
73149;SHT30;61346;48.930;2.266;2022-08-19T04:38:10;20.75;66.01
73149;SHT30;61346;48.930;2.266;2022-08-19T04:40:45;20.73;65.80
73149;SHT30;61346;48.930;2.266;2022-08-19T04:43:29;20.72;65.85
73149;SHT30;61346;48.930;2.266;2022-08-19T04:45:55;20.77;66.00
73149;SHT30;61346;48.930;2.266;2022-08-19T04:48:21;20.77;65.97
73149;SHT30;61346;48.930;2.266;2022-08-19T04:50:55;20.80;66.01
73149;SHT30;61346;48.930;2.266;2022-08-19T04:53:27;20.79;65.81
73149;SHT30;61346;48.930;2.266;2022-08-19T04:55:54;20.82;65.97
73149;SHT30;61346;48.930;2.266;2022-08-19T04:58:20;20.79;66.02
73149;SHT30;61346;48.930;2.266;2022-08-19T05:00:45;20.83;65.73
73149;SHT30;61346;48.930;2.266;2022-08-19T05:03:10;20.79;65.92
73149;SHT30;61346;48.930;2.266;2022-08-19T05:05:41;20.80;66.02
73149;SHT30;61346;48.930;2.266;2022-08-19T06:58:15;21.92;66.08
73149;SHT30;61346;48.930;2.266;2022-08-19T07:10:19;21.99;66.16
73149;SHT30;61346;48.930;2.266;2022-08-19T07:12:58;21.99;66.16
73149;SHT30;61346;48.930;2.266;2022-08-19T07:15:24;21.96;66.19
73149;SHT30;61346;48.930;2.266;2022-08-19T07:17:49;22.00;66.22
73149;SHT30;61346;48.930;2.266;2022-08-19T07:20:19;22.04;66.21
73149;SHT30;61346;48.930;2.266;2022-08-19T07:26:06;22.14;66.10
73149;SHT30;61346;48.930;2.266;2022-08-19T07:28:43;22.14;66.24
73149;SHT30;61346;48.930;2.266;2022-08-19T07:31:12;22.09;66.23
73149;SHT30;61346;48.930;2.266;2022-08-19T07:33:40;22.12;66.21
73149;SHT30;61346;48.930;2.266;2022-08-19T07:36:12;22.13;66.13
73149;SHT30;61346;48.930;2.266;2022-08-19T07:38:59;22.12;66.26
73149;SHT30;61346;48.930;2.266;2022-08-19T07:41:27;22.07;66.17
73149;SHT30;61346;48.930;2.266;2022-08-19T07:43:58;22.09;66.24
73149;SHT30;61346;48.930;2.266;2022-08-19T07:46:31;22.12;66.28
73149;SHT30;61346;48.930;2.266;2022-08-19T07:49:01;22.20;66.20
73149;SHT30;61346;48.930;2.266;2022-08-19T07:51:28;22.23;66.23
73149;SHT30;61346;48.930;2.266;2022-08-19T07:53:54;22.29;66.16
73149;SHT30;61346;48.930;2.266;2022-08-19T07:56:21;22.34;66.10
73149;SHT30;61346;48.930;2.266;2022-08-19T07:58:48;22.43;66.08
73149;SHT30;61346;48.930;2.266;2022-08-19T08:01:17;22.55;65.93
73149;SHT30;61346;48.930;2.266;2022-08-19T08:03:45;22.62;65.85
73149;SHT30;61346;48.930;2.266;2022-08-19T08:06:29;22.68;65.88
73149;SHT30;61346;48.930;2.266;2022-08-19T08:09:16;22.79;65.60
73149;SHT30;61346;48.930;2.266;2022-08-19T08:11:55;22.81;65.59
73149;SHT30;61346;48.930;2.266;2022-08-19T08:14:32;22.79;65.54
73149;SHT30;61346;48.930;2.266;2022-08-19T08:17:01;22.88;65.44
73149;SHT30;61346;48.930;2.266;2022-08-19T08:19:29;22.95;65.50
73149;SHT30;61346;48.930;2.266;2022-08-19T08:21:58;23.02;65.26
73149;SHT30;61346;48.930;2.266;2022-08-19T08:24:26;23.03;65.07
73149;SHT30;61346;48.930;2.266;2022-08-19T08:26:52;23.02;65.06
73149;SHT30;61346;48.930;2.266;2022-08-19T08:29:17;23.07;64.98
73149;SHT30;61346;48.930;2.266;2022-08-19T08:31:45;23.10;64.90
73149;SHT30;61346;48.930;2.266;2022-08-19T08:34:12;23.06;64.93
73149;SHT30;61346;48.930;2.266;2022-08-19T08:36:44;23.10;64.84
73149;SHT30;61346;48.930;2.266;2022-08-19T08:39:13;23.17;64.93
73149;SHT30;61346;48.930;2.266;2022-08-19T08:41:55;23.24;64.80
73149;SHT30;61346;48.930;2.266;2022-08-19T08:44:39;23.30;64.87
73149;SHT30;61346;48.930;2.266;2022-08-19T08:47:17;23.44;64.82
73149;SHT30;61346;48.930;2.266;2022-08-19T08:49:57;23.51;64.57
73149;SHT30;61346;48.930;2.266;2022-08-19T08:52:31;23.55;64.44
73149;SHT30;61346;48.930;2.266;2022-08-19T08:55:16;23.60;64.25
73149;SHT30;61346;48.930;2.266;2022-08-19T08:57:52;23.67;64.34
73149;SHT30;61346;48.930;2.266;2022-08-19T09:00:39;23.72;64.23
73149;SHT30;61346;48.930;2.266;2022-08-19T09:03:19;23.79;64.10
73149;SHT30;61346;48.930;2.266;2022-08-19T09:09:04;23.86;64.07
73149;SHT30;61346;48.930;2.266;2022-08-19T09:11:55;23.96;63.93
73149;SHT30;61346;48.930;2.266;2022-08-19T09:14:43;24.06;63.76
73149;SHT30;61346;48.930;2.266;2022-08-19T09:17:11;24.17;63.81
73149;SHT30;61346;48.930;2.266;2022-08-19T09:20:00;24.25;62.86
73149;SHT30;61346;48.930;2.266;2022-08-19T09:22:33;24.30;63.31
73149;SHT30;61346;48.930;2.266;2022-08-19T09:25:04;24.41;63.21
73149;SHT30;61346;48.930;2.266;2022-08-19T09:27:32;24.53;62.93
73149;SHT30;61346;48.930;2.266;2022-08-19T09:29:58;24.64;63.07
73149;SHT30;61346;48.930;2.266;2022-08-19T09:32:24;24.75;62.93
73149;SHT30;61346;48.930;2.266;2022-08-19T09:34:52;24.82;61.74
73149;SHT30;61346;48.930;2.266;2022-08-19T09:37:20;24.81;62.16
73149;SHT30;61346;48.930;2.266;2022-08-19T09:39:46;24.87;62.28
73149;SHT30;61346;48.930;2.266;2022-08-19T09:42:11;24.91;62.16
73149;SHT30;61346;48.930;2.266;2022-08-19T09:44:42;25.06;62.04
73149;SHT30;61346;48.930;2.266;2022-08-19T09:47:13;25.06;62.03
73149;SHT30;61346;48.930;2.266;2022-08-19T09:49:44;25.20;61.92
73149;SHT30;61346;48.930;2.266;2022-08-19T09:52:11;25.36;62.00
73149;SHT30;61346;48.930;2.266;2022-08-19T09:54:38;25.60;61.83
73149;SHT30;61346;48.930;2.266;2022-08-19T09:57:06;25.82;61.19
73149;SHT30;61346;48.930;2.266;2022-08-19T09:59:31;25.90;60.25
73149;SHT30;61346;48.930;2.266;2022-08-19T10:01:58;25.88;60.67
73149;SHT30;61346;48.930;2.266;2022-08-19T10:04:23;25.84;60.72
73149;SHT30;61346;48.930;2.266;2022-08-19T10:07:08;25.91;60.47
73149;SHT30;61346;48.930;2.266;2022-08-19T10:09:34;25.95;60.53
73149;SHT30;61346;48.930;2.266;2022-08-19T10:11:59;26.06;60.20
73149;SHT30;61346;48.930;2.266;2022-08-19T10:14:26;26.18;60.12
73149;SHT30;61346;48.930;2.266;2022-08-19T10:16:52;26.31;60.05
73149;SHT30;61346;48.930;2.266;2022-08-19T10:19:18;26.47;59.57
73149;SHT30;61346;48.930;2.266;2022-08-19T10:21:46;26.61;59.33
73149;SHT30;61346;48.930;2.266;2022-08-19T10:24:11;26.79;58.89
73149;SHT30;61346;48.930;2.266;2022-08-19T10:26:39;26.97;58.45
73149;SHT30;61346;48.930;2.266;2022-08-19T10:29:07;27.15;58.85
73149;SHT30;61346;48.930;2.266;2022-08-19T10:31:37;27.35;58.85
73149;SHT30;61346;48.930;2.266;2022-08-19T10:34:02;27.48;56.50
73149;SHT30;61346;48.930;2.266;2022-08-19T10:36:34;27.57;58.07
73149;SHT30;61346;48.930;2.266;2022-08-19T10:39:05;27.74;57.37
73149;SHT30;61346;48.930;2.266;2022-08-19T10:41:33;27.77;56.54
73149;SHT30;61346;48.930;2.266;2022-08-19T10:44:11;27.60;57.22
73149;SHT30;61346;48.930;2.266;2022-08-19T10:46:46;27.43;55.97
73149;SHT30;61346;48.930;2.266;2022-08-19T10:49:12;27.24;57.30
73149;SHT30;61346;48.930;2.266;2022-08-19T10:51:39;27.01;57.38
73149;SHT30;61346;48.930;2.266;2022-08-19T10:54:23;26.74;56.14
73149;SHT30;61346;48.930;2.266;2022-08-19T12:10:18;25.46;59.03
73149;SHT30;61346;48.930;2.266;2022-08-19T12:12:43;25.49;59.07
73149;SHT30;61346;48.930;2.266;2022-08-19T12:15:16;25.47;59.14
73149;SHT30;61346;48.930;2.266;2022-08-19T12:17:42;25.46;59.01
73149;SHT30;61346;48.930;2.266;2022-08-19T12:20:09;25.49;59.07
73149;SHT30;61346;48.930;2.266;2022-08-19T12:23:10;25.53;59.07
73149;SHT30;61346;48.930;2.266;2022-08-19T12:29:37;25.56;58.99
73149;SHT30;61346;48.930;2.266;2022-08-19T12:39:28;25.64;59.10
73149;SHT30;61346;48.930;2.266;2022-08-19T12:43:00;25.70;58.96
73149;SHT30;61346;48.930;2.266;2022-08-19T12:49:27;25.78;58.71
73149;SHT30;61346;48.930;2.266;2022-08-19T12:52:06;25.78;58.85
73149;SHT30;61346;48.930;2.266;2022-08-19T12:54:59;25.88;58.98
73149;SHT30;61346;48.930;2.266;2022-08-19T12:57:45;26.08;58.93
73149;SHT30;61346;48.930;2.266;2022-08-19T13:00:40;26.26;58.74
73149;SHT30;61346;48.930;2.266;2022-08-19T13:03:16;26.43;58.58
73149;SHT30;61346;48.930;2.266;2022-08-19T13:06:19;26.56;57.75
73149;SHT30;61346;48.930;2.266;2022-08-19T13:24:33;27.37;56.90
73149;SHT30;61346;48.930;2.266;2022-08-19T13:27:10;27.39;56.79
73149;SHT30;61346;48.930;2.266;2022-08-19T13:33:18;27.52;56.69
73149;SHT30;61346;48.930;2.266;2022-08-19T13:36:17;27.62;56.63
73149;SHT30;61346;48.930;2.266;2022-08-19T13:39:05;27.79;56.49
73149;SHT30;61346;48.930;2.266;2022-08-19T13:41:43;27.96;56.36
73149;SHT30;61346;48.930;2.266;2022-08-19T13:47:20;28.24;55.90
73149;SHT30;61346;48.930;2.266;2022-08-19T13:52:55;28.86;54.58
73149;SHT30;61346;48.930;2.266;2022-08-19T13:55:46;29.10;54.49
73149;SHT30;61346;48.930;2.266;2022-08-19T13:58:33;29.06;54.54
73149;SHT30;61346;48.930;2.266;2022-08-19T14:01:21;29.14;54.31
73149;SHT30;61346;48.930;2.266;2022-08-19T14:04:18;29.23;54.22
73149;SHT30;61346;48.930;2.266;2022-08-19T14:09:33;29.47;53.76
73149;SHT30;61346;48.930;2.266;2022-08-19T14:15:15;29.73;53.54
73149;SHT30;61346;48.930;2.266;2022-08-19T14:18:04;29.83;53.31
73149;SHT30;61346;48.930;2.266;2022-08-19T14:24:58;29.95;52.53
73149;SHT30;61346;48.930;2.266;2022-08-19T14:36:56;29.57;51.83
73149;SHT30;61346;48.930;2.266;2022-08-19T14:39:25;29.31;51.87
73149;SHT30;61346;48.930;2.266;2022-08-19T14:48:05;28.63;52.52
73149;SHT30;61346;48.930;2.266;2022-08-19T15:09:54;27.11;54.53
73149;SHT30;61346;48.930;2.266;2022-08-19T17:32:21;26.17;56.37
73149;SHT30;61346;48.930;2.266;2022-08-19T17:46:19;25.90;57.12
73149;SHT30;61346;48.930;2.266;2022-08-19T17:57:05;25.04;58.59
73149;SHT30;61346;48.930;2.266;2022-08-19T18:14:29;23.43;63.36
73149;SHT30;61346;48.930;2.266;2022-08-19T18:17:13;23.28;63.98
73149;SHT30;61346;48.930;2.266;2022-08-19T20:13:10;22.51;69.13
73149;SHT30;61346;48.930;2.266;2022-08-19T20:57:00;22.07;68.78
73149;SHT30;61346;48.930;2.266;2022-08-19T21:02:54;21.93;68.78
73149;SHT30;61346;48.930;2.266;2022-08-19T21:15:52;21.68;69.43
73149;SHT30;61346;48.930;2.266;2022-08-19T21:22:14;21.55;69.48
73149;SHT30;61346;48.930;2.266;2022-08-19T21:25:17;21.49;69.26
73149;SHT30;61346;48.930;2.266;2022-08-19T21:32:06;21.44;69.40
73149;SHT30;61346;48.930;2.266;2022-08-19T21:39:30;21.31;69.48
73149;SHT30;61346;48.930;2.266;2022-08-19T21:49:58;21.18;69.91
73149;SHT30;61346;48.930;2.266;2022-08-19T22:04:12;21.04;68.01
73149;SHT30;61346;48.930;2.266;2022-08-19T22:10:27;20.84;67.53
73149;SHT30;61346;48.930;2.266;2022-08-19T23:05:41;19.72;65.14
73149;SHT30;61346;48.930;2.266;2022-08-19T23:08:09;19.70;65.22
73149;SHT30;61346;48.930;2.266;2022-08-19T23:10:37;19.69;65.28
73149;SHT30;61346;48.930;2.266;2022-08-19T23:13:05;19.65;65.44
73149;SHT30;61346;48.930;2.266;2022-08-19T23:15:33;19.65;65.68
73149;SHT30;61346;48.930;2.266;2022-08-19T23:18:01;19.61;66.00
73149;SHT30;61346;48.930;2.266;2022-08-19T23:20:31;19.59;66.13
73149;SHT30;61346;48.930;2.266;2022-08-19T23:22:57;19.53;66.26
73149;SHT30;61346;48.930;2.266;2022-08-19T23:25:26;19.51;66.44
73149;SHT30;61346;48.930;2.266;2022-08-19T23:27:54;19.48;66.52
73149;SHT30;61346;48.930;2.266;2022-08-19T23:30:42;19.44;66.58
73149;SHT30;61346;48.930;2.266;2022-08-19T23:33:31;19.39;66.77
73149;SHT30;61346;48.930;2.266;2022-08-19T23:36:05;19.38;66.73
73149;SHT30;61346;48.930;2.266;2022-08-19T23:38:31;19.35;66.82
73149;SHT30;61346;48.930;2.266;2022-08-19T23:40:58;19.31;66.94
73149;SHT30;61346;48.930;2.266;2022-08-19T23:43:24;19.26;66.95
73149;SHT30;61346;48.930;2.266;2022-08-19T23:45:54;19.26;67.06
73149;SHT30;61346;48.930;2.266;2022-08-19T23:48:20;19.21;67.07
73149;SHT30;61346;48.930;2.266;2022-08-19T23:50:47;19.17;67.17
73149;SHT30;61346;48.930;2.266;2022-08-19T23:53:15;19.14;67.29
73149;SHT30;61346;48.930;2.266;2022-08-19T23:55:48;19.11;67.23
73149;SHT30;61346;48.930;2.266;2022-08-19T23:58:14;19.08;67.21
